createdAt,value
2022-09-17T00:01:25.429Z,10.30
2022-09-17T00:03:55.809Z,10.30
2022-09-17T00:06:25.330Z,10.30
2022-09-17T00:08:54.019Z,10.30
2022-09-17T00:13:52.203Z,10.40
2022-09-17T00:16:32.741Z,10.40
2022-09-17T00:19:01.665Z,10.60
2022-09-17T00:21:29.932Z,10.40
2022-09-17T00:24:00.219Z,10.40
2022-09-17T00:26:28.769Z,10.30
2022-09-17T00:28:57.357Z,10.20
2022-09-17T00:31:25.408Z,10.20
2022-09-17T00:36:21.815Z,10.10
2022-09-17T00:38:53.744Z,10.10
2022-09-17T00:41:22.327Z,10.00
2022-09-17T00:43:53.436Z,9.90
2022-09-17T00:46:27.109Z,9.90
2022-09-17T00:51:33.976Z,9.90
2022-09-17T00:54:03.474Z,9.90
2022-09-17T00:56:34.555Z,9.90
2022-09-17T00:59:03.775Z,9.80
2022-09-17T01:01:32.519Z,10.00
2022-09-17T01:04:00.562Z,9.90
2022-09-17T01:06:36.578Z,10.00
2022-09-17T01:09:07.119Z,10.10
2022-09-17T01:11:53.198Z,10.00
2022-09-17T01:17:29.185Z,10.00
2022-09-17T01:20:34.878Z,10.10
2022-09-17T01:23:39.826Z,9.90
2022-09-17T01:26:32.625Z,9.80
2022-09-17T01:29:21.744Z,9.90
2022-09-17T01:34:56.389Z,9.80
2022-09-17T01:37:33.256Z,10.00
2022-09-17T01:40:10.394Z,9.80
2022-09-17T01:42:48.878Z,9.90
2022-09-17T01:45:36.320Z,9.90
2022-09-17T01:48:27.830Z,10.10
2022-09-17T01:51:10.964Z,9.90
2022-09-17T01:54:01.940Z,9.90
2022-09-17T01:56:38.538Z,9.90
2022-09-17T01:59:23.913Z,9.90
2022-09-17T02:02:16.889Z,9.90
2022-09-17T02:04:52.665Z,10.00
2022-09-17T02:07:22.802Z,9.90
2022-09-17T02:10:00.982Z,9.90
2022-09-17T02:12:42.867Z,9.90
2022-09-17T02:15:34.087Z,9.90
2022-09-17T02:18:12.093Z,9.80
2022-09-17T02:20:53.042Z,9.90
2022-09-17T02:23:35.905Z,9.90
2022-09-17T02:26:16.418Z,9.90
2022-09-17T02:29:09.785Z,9.90
2022-09-17T02:31:37.329Z,9.90
2022-09-17T02:34:05.954Z,9.70
2022-09-17T02:36:35.281Z,10.00
2022-09-17T02:39:04.205Z,10.00
2022-09-17T02:42:11.035Z,10.00
2022-09-17T02:44:50.760Z,10.00
2022-09-17T02:47:27.492Z,10.00
2022-09-17T02:50:12.668Z,10.00
2022-09-17T02:53:05.776Z,10.00
2022-09-17T02:55:47.163Z,10.20
2022-09-17T02:58:17.631Z,10.00
2022-09-17T03:00:46.508Z,10.00
2022-09-17T03:03:29.455Z,10.00
2022-09-17T03:05:58.148Z,10.00
2022-09-17T03:08:31.055Z,9.90
2022-09-17T03:10:58.552Z,10.10
2022-09-17T03:13:26.569Z,9.90
2022-09-17T03:15:54.549Z,10.00
2022-09-17T03:20:51.376Z,10.00
2022-09-17T03:23:22.068Z,10.00
2022-09-17T03:25:50.613Z,10.10
2022-09-17T03:28:18.147Z,10.00
2022-09-17T03:30:46.729Z,10.00
2022-09-17T03:33:14.503Z,9.90
2022-09-17T03:35:47.062Z,9.90
2022-09-17T03:40:43.712Z,10.00
2022-09-17T03:43:11.667Z,10.00
2022-09-17T03:48:07.248Z,10.00
2022-09-17T03:50:34.904Z,9.90
2022-09-17T03:53:02.761Z,9.90
2022-09-17T03:57:58.181Z,9.90
2022-09-17T04:00:26.004Z,9.90
2022-09-17T04:02:53.811Z,9.90
2022-09-17T04:05:21.425Z,9.90
2022-09-17T04:07:49.311Z,9.90
2022-09-17T04:10:16.879Z,9.00
2022-09-17T04:12:44.412Z,9.90
2022-09-17T04:15:12.328Z,10.10
2022-09-17T04:17:41.481Z,10.00
2022-09-17T04:20:09.295Z,9.90
2022-09-17T04:22:37.001Z,9.90
2022-09-17T04:25:04.825Z,9.90
2022-09-17T04:27:32.765Z,9.90
2022-09-17T04:30:01.793Z,9.80
2022-09-17T04:32:31.036Z,9.80
2022-09-17T04:34:59.037Z,9.80
2022-09-17T04:37:27.032Z,9.90
2022-09-17T04:39:54.747Z,9.90
2022-09-17T04:42:22.655Z,9.90
2022-09-17T04:44:50.762Z,10.10
2022-09-17T04:47:19.001Z,9.90
2022-09-17T04:49:46.924Z,9.90
2022-09-17T04:52:15.473Z,9.80
2022-09-17T04:54:43.041Z,9.80
2022-09-17T04:57:10.738Z,9.80
2022-09-17T04:59:38.407Z,9.90
2022-09-17T05:02:06.107Z,9.90
2022-09-17T05:04:34.487Z,10.00
2022-09-17T05:07:03.017Z,10.00
2022-09-17T05:09:31.121Z,10.10
2022-09-17T05:11:59.076Z,10.10
2022-09-17T05:14:26.586Z,10.10
2022-09-17T05:16:54.982Z,10.10
2022-09-17T05:19:22.780Z,10.10
2022-09-17T05:21:50.649Z,10.10
2022-09-17T05:24:18.380Z,10.10
2022-09-17T05:26:46.532Z,10.10
2022-09-17T05:29:14.227Z,10.10
2022-09-17T05:31:42.179Z,10.20
2022-09-17T05:34:12.455Z,10.20
2022-09-17T05:36:40.331Z,10.20
2022-09-17T05:39:09.435Z,10.30
2022-09-17T05:41:36.926Z,10.30
2022-09-17T05:44:06.201Z,10.60
2022-09-17T05:46:34.085Z,10.30
2022-09-17T05:49:02.107Z,10.30
2022-09-17T05:51:29.801Z,10.50
2022-09-17T05:53:57.277Z,10.60
2022-09-17T05:56:25.125Z,10.50
2022-09-17T05:58:57.020Z,10.50
2022-09-17T06:01:25.218Z,10.50
2022-09-17T06:03:53.903Z,10.60
2022-09-17T06:06:21.571Z,10.70
2022-09-17T06:08:49.404Z,11.20
2022-09-17T06:11:17.140Z,10.80
2022-09-17T06:13:46.138Z,10.90
2022-09-17T06:16:14.649Z,11.00
2022-09-17T06:18:42.339Z,10.90
2022-09-17T06:21:10.206Z,10.90
2022-09-17T06:23:37.885Z,10.80
2022-09-17T06:26:06.675Z,11.00
2022-09-17T06:28:39.149Z,11.10
2022-09-17T06:31:11.758Z,11.20
2022-09-17T06:33:39.508Z,11.10
2022-09-17T06:36:13.635Z,11.00
2022-09-17T06:38:41.607Z,11.30
2022-09-17T06:41:09.260Z,11.40
2022-09-17T06:43:36.858Z,11.50
2022-09-17T06:46:06.759Z,11.50
2022-09-17T06:48:35.732Z,11.50
2022-09-17T06:51:05.800Z,11.50
2022-09-17T06:53:33.349Z,11.30
2022-09-17T06:56:06.315Z,11.30
2022-09-17T06:58:43.871Z,11.40
2022-09-17T07:01:12.591Z,11.70
2022-09-17T07:03:42.928Z,11.90
2022-09-17T07:06:11.524Z,11.90
2022-09-17T07:08:39.590Z,11.90
2022-09-17T07:11:08.412Z,11.80
2022-09-17T07:13:36.195Z,11.70
2022-09-17T07:16:05.262Z,10.30
2022-09-17T07:18:33.920Z,11.50
2022-09-17T07:21:04.872Z,11.40
2022-09-17T07:23:34.360Z,11.60
2022-09-17T07:26:12.731Z,11.90
2022-09-17T07:28:41.291Z,12.00
2022-09-17T07:31:13.720Z,12.00
2022-09-17T07:33:41.979Z,11.90
2022-09-17T07:36:12.597Z,12.10
2022-09-17T07:38:40.173Z,12.00
2022-09-17T07:41:15.726Z,12.20
2022-09-17T07:43:44.209Z,12.00
2022-09-17T07:46:21.578Z,12.00
2022-09-17T07:48:51.870Z,11.90
2022-09-17T07:51:23.040Z,11.90
2022-09-17T07:53:54.809Z,12.00
2022-09-17T07:56:22.704Z,11.90
2022-09-17T07:58:50.631Z,12.00
2022-09-17T08:01:18.628Z,12.10
2022-09-17T08:03:50.517Z,12.10
2022-09-17T08:06:20.970Z,12.00
2022-09-17T08:08:48.990Z,12.00
2022-09-17T08:11:38.037Z,12.00
2022-09-17T08:14:06.411Z,12.10
2022-09-17T08:19:04.226Z,12.10
2022-09-17T08:21:32.045Z,12.10
2022-09-17T08:23:59.797Z,12.10
2022-09-17T08:26:28.030Z,12.30
2022-09-17T08:28:56.717Z,12.40
2022-09-17T08:31:27.119Z,12.50
2022-09-17T08:33:56.630Z,12.30
2022-09-17T08:36:26.546Z,12.50
2022-09-17T08:38:55.461Z,12.70
2022-09-17T08:41:58.515Z,12.90
2022-09-17T08:44:39.297Z,13.30
2022-09-17T08:47:21.632Z,13.00
2022-09-17T08:50:07.707Z,12.90
2022-09-17T08:52:54.913Z,12.90
2022-09-17T08:55:29.355Z,12.80
2022-09-17T08:58:30.473Z,12.70
2022-09-17T09:01:16.739Z,12.60
2022-09-17T09:04:16.558Z,12.40
2022-09-17T09:06:49.900Z,12.00
2022-09-17T09:09:21.284Z,11.80
2022-09-17T09:11:50.347Z,11.80
2022-09-17T09:14:26.644Z,11.90
2022-09-17T09:16:57.833Z,12.00
2022-09-17T09:19:29.328Z,12.10
2022-09-17T09:22:13.298Z,12.20
2022-09-17T09:24:51.943Z,12.20
2022-09-17T09:27:33.102Z,12.30
2022-09-17T09:30:14.185Z,12.30
2022-09-17T09:33:15.679Z,12.30
2022-09-17T09:35:44.642Z,12.30
2022-09-17T09:38:14.982Z,12.40
2022-09-17T09:40:57.681Z,12.40
2022-09-17T09:46:31.067Z,12.40
2022-09-17T09:49:08.888Z,12.40
2022-09-17T09:52:16.973Z,12.50
2022-09-17T09:54:53.305Z,12.40
2022-09-17T09:57:52.485Z,12.80
2022-09-17T10:00:32.049Z,12.90
2022-09-17T10:03:11.658Z,12.90
2022-09-17T10:05:39.596Z,12.90
2022-09-17T10:08:14.804Z,13.00
2022-09-17T10:11:14.542Z,13.60
2022-09-17T10:13:43.503Z,13.80
2022-09-17T10:16:21.857Z,14.60
2022-09-17T10:18:51.821Z,14.80
2022-09-17T10:21:23.225Z,14.60
2022-09-17T10:23:51.714Z,14.40
2022-09-17T10:26:28.884Z,14.40
2022-09-17T10:28:58.528Z,14.90
2022-09-17T10:31:26.331Z,15.10
2022-09-17T10:34:01.583Z,14.70
2022-09-17T10:36:46.097Z,14.70
2022-09-17T10:39:46.757Z,14.60
2022-09-17T10:42:16.443Z,14.60
2022-09-17T10:44:58.893Z,14.90
2022-09-17T10:47:31.732Z,14.90
2022-09-17T10:50:21.491Z,15.40
2022-09-17T10:52:52.973Z,15.80
2022-09-17T10:55:39.149Z,15.50
2022-09-17T10:58:17.669Z,15.20
2022-09-17T11:01:10.491Z,14.80
2022-09-17T11:03:49.846Z,14.60
2022-09-17T11:06:40.605Z,14.50
2022-09-17T11:09:40.232Z,14.30
2022-09-17T11:12:40.967Z,14.70
2022-09-17T11:15:27.048Z,14.70
2022-09-17T11:18:04.178Z,15.30
2022-09-17T11:20:45.528Z,15.90
2022-09-17T11:23:29.537Z,16.20
2022-09-17T11:28:59.859Z,16.70
2022-09-17T11:31:27.390Z,16.50
2022-09-17T11:34:14.570Z,16.50
2022-09-17T11:39:22.945Z,16.30
2022-09-17T11:41:52.800Z,15.40
2022-09-17T11:44:35.512Z,14.80
2022-09-17T11:47:21.197Z,14.50
2022-09-17T11:49:51.628Z,14.50
2022-09-17T11:52:39.002Z,14.50
2022-09-17T11:55:27.461Z,14.60
2022-09-17T11:58:03.242Z,14.60
2022-09-17T12:00:36.162Z,14.60
2022-09-17T12:03:16.613Z,14.50
2022-09-17T12:05:57.617Z,14.50
2022-09-17T12:09:19.507Z,14.50
2022-09-17T12:12:26.328Z,14.80
2022-09-17T12:15:04.134Z,15.30
2022-09-17T12:18:30.561Z,15.10
2022-09-17T12:20:55.798Z,15.00
2022-09-17T12:23:39.720Z,14.80
2022-09-17T12:26:34.752Z,14.80
2022-09-17T12:29:40.075Z,15.00
2022-09-17T12:32:29.931Z,14.90
2022-09-17T12:35:46.401Z,14.60
2022-09-17T12:38:42.836Z,14.50
2022-09-17T12:41:12.929Z,14.30
2022-09-17T12:43:43.149Z,14.40
2022-09-17T12:46:10.681Z,14.30
2022-09-17T12:49:06.197Z,14.50
2022-09-17T12:54:01.596Z,14.40
2022-09-17T12:56:44.188Z,14.30
2022-09-17T12:59:19.246Z,14.30
2022-09-17T13:05:00.037Z,14.30
2022-09-17T13:07:43.704Z,14.40
2022-09-17T13:10:29.639Z,16.80
2022-09-17T13:15:47.204Z,14.20
2022-09-17T13:18:26.548Z,14.20
2022-09-17T13:21:33.180Z,14.10
2022-09-17T13:24:03.130Z,14.00
2022-09-17T13:26:39.843Z,14.10
2022-09-17T13:29:10.267Z,14.10
2022-09-17T13:34:19.478Z,14.20
2022-09-17T13:36:54.005Z,14.20
2022-09-17T13:39:42.480Z,14.20
2022-09-17T13:42:16.760Z,14.10
2022-09-17T13:44:49.205Z,14.00
2022-09-17T13:47:45.527Z,13.90
2022-09-17T13:50:30.664Z,13.90
2022-09-17T13:53:27.114Z,13.90
2022-09-17T13:56:01.311Z,13.80
2022-09-17T13:58:32.908Z,13.80
2022-09-17T14:01:05.702Z,13.70
2022-09-17T14:03:37.284Z,13.60
2022-09-17T14:06:22.132Z,13.50
2022-09-17T14:08:55.596Z,13.40
2022-09-17T14:11:22.858Z,13.40
2022-09-17T14:13:56.745Z,13.30
2022-09-17T14:16:46.215Z,13.30
2022-09-17T14:21:44.449Z,13.30
2022-09-17T14:24:26.955Z,13.30
2022-09-17T14:27:10.961Z,13.20
2022-09-17T14:29:55.000Z,13.30
2022-09-17T14:32:36.581Z,13.20
2022-09-17T14:35:20.427Z,13.30
2022-09-17T14:37:55.842Z,13.20
2022-09-17T14:40:24.572Z,13.10
2022-09-17T14:42:56.633Z,13.00
2022-09-17T14:45:31.489Z,13.00
2022-09-17T14:48:32.990Z,13.10
2022-09-17T14:51:18.778Z,13.20
2022-09-17T14:54:07.645Z,13.30
2022-09-17T14:56:40.208Z,13.40
2022-09-17T14:59:21.881Z,13.40
2022-09-17T15:01:51.242Z,13.70
2022-09-17T15:04:25.979Z,13.50
2022-09-17T15:06:53.975Z,13.50
2022-09-17T15:09:26.648Z,15.90
2022-09-17T15:11:58.886Z,13.30
2022-09-17T15:14:32.355Z,13.20
2022-09-17T15:17:02.724Z,13.10
2022-09-17T15:19:42.490Z,12.90
2022-09-17T15:22:32.024Z,12.90
2022-09-17T15:25:14.373Z,12.90
2022-09-17T15:27:44.762Z,12.80
2022-09-17T15:30:18.134Z,12.70
2022-09-17T15:33:00.992Z,12.60
2022-09-17T15:35:33.559Z,12.60
2022-09-17T15:43:26.982Z,12.40
2022-09-17T15:45:55.354Z,12.40
2022-09-17T15:48:39.893Z,12.20
2022-09-17T15:51:28.389Z,12.20
2022-09-17T15:56:39.357Z,12.00
2022-09-17T16:01:56.491Z,12.00
2022-09-17T16:04:35.019Z,11.90
2022-09-17T16:07:11.743Z,11.80
2022-09-17T16:12:14.793Z,11.80
2022-09-17T16:14:47.628Z,11.80
2022-09-17T16:19:53.266Z,11.90
2022-09-17T16:24:48.978Z,11.90
2022-09-17T16:27:24.562Z,11.90
2022-09-17T16:30:01.132Z,11.90
2022-09-17T16:32:29.310Z,11.80
2022-09-17T16:37:26.981Z,11.80
2022-09-17T16:39:55.322Z,11.90
2022-09-17T16:44:50.944Z,12.10
2022-09-17T16:47:18.847Z,12.10
2022-09-17T16:49:46.808Z,12.10
2022-09-17T16:54:42.389Z,12.00
2022-09-17T16:57:10.311Z,11.90
2022-09-17T17:04:33.853Z,11.90
2022-09-17T17:07:01.839Z,11.80
2022-09-17T17:09:29.697Z,11.80
2022-09-17T17:11:57.296Z,11.60
2022-09-17T17:16:53.050Z,11.60
2022-09-17T17:19:21.989Z,11.40
2022-09-17T17:21:51.401Z,11.40
2022-09-17T17:24:19.362Z,11.40
2022-09-17T17:26:48.627Z,11.30
2022-09-17T17:29:16.964Z,11.30
2022-09-17T17:31:44.868Z,11.20
2022-09-17T17:34:12.715Z,11.10
2022-09-17T17:39:09.557Z,11.00
2022-09-17T17:44:04.665Z,10.80
2022-09-17T17:46:33.629Z,10.80
2022-09-17T17:49:01.693Z,10.80
2022-09-17T17:51:29.750Z,10.80
2022-09-17T17:56:25.513Z,10.70
2022-09-17T17:58:58.550Z,10.70
2022-09-17T18:01:31.093Z,10.80
2022-09-17T18:04:02.381Z,10.80
2022-09-17T18:06:30.501Z,10.80
2022-09-17T18:08:58.707Z,10.90
2022-09-17T18:11:27.263Z,10.80
2022-09-17T18:13:56.814Z,10.90
2022-09-17T18:16:25.202Z,10.90
2022-09-17T18:18:55.073Z,10.90
2022-09-17T18:21:24.228Z,11.00
2022-09-17T18:23:52.361Z,11.00
2022-09-17T18:26:24.699Z,11.00
2022-09-17T18:28:53.177Z,13.10
2022-09-17T18:31:29.682Z,13.40
2022-09-17T18:34:06.218Z,11.00
2022-09-17T18:36:35.473Z,11.00
2022-09-17T18:39:44.627Z,11.00
2022-09-17T18:41:53.926Z,11.00
2022-09-17T18:44:22.462Z,11.00
2022-09-17T18:46:51.375Z,11.10
2022-09-17T18:49:19.275Z,11.10
2022-09-17T18:51:47.120Z,11.10
2022-09-17T18:54:16.229Z,11.20
2022-09-17T18:56:43.938Z,11.20
2022-09-17T18:59:13.371Z,11.20
2022-09-17T19:01:41.201Z,11.20
2022-09-17T19:04:10.195Z,11.20
2022-09-17T19:06:38.044Z,11.20
2022-09-17T19:11:36.555Z,11.30
2022-09-17T19:14:05.437Z,11.30
2022-09-17T19:16:33.444Z,11.40
2022-09-17T19:19:01.876Z,12.60
2022-09-17T19:23:57.248Z,11.40
2022-09-17T19:26:27.765Z,11.40
2022-09-17T19:28:57.968Z,11.40
2022-09-17T19:31:26.270Z,11.40
2022-09-17T19:33:56.611Z,11.40
2022-09-17T19:36:24.483Z,11.40
2022-09-17T19:38:52.466Z,11.40
2022-09-17T19:41:25.614Z,11.40
2022-09-17T19:43:54.207Z,11.30
2022-09-17T19:46:24.250Z,11.30
2022-09-17T19:48:53.865Z,11.30
2022-09-17T19:51:23.091Z,11.10
2022-09-17T19:53:52.432Z,11.40
2022-09-17T19:56:21.956Z,11.10
2022-09-17T19:58:50.070Z,10.90
2022-09-17T20:01:19.230Z,11.00
2022-09-17T20:03:47.267Z,10.90
2022-09-17T20:06:16.978Z,10.90
2022-09-17T20:08:47.055Z,10.90
2022-09-17T20:11:16.711Z,10.80
2022-09-17T20:13:44.962Z,10.80
2022-09-17T20:16:15.455Z,10.70
2022-09-17T20:18:46.696Z,10.70
2022-09-17T20:21:22.261Z,10.80
2022-09-17T20:23:51.201Z,10.60
2022-09-17T20:26:19.551Z,10.50
2022-09-17T20:31:18.654Z,10.50
2022-09-17T20:33:47.624Z,10.40
2022-09-17T20:36:17.914Z,10.40
2022-09-17T20:44:01.991Z,10.30
2022-09-17T20:46:30.666Z,10.30
2022-09-17T20:48:59.049Z,10.20
2022-09-17T20:51:32.841Z,10.20
2022-09-17T20:54:01.717Z,10.20
2022-09-17T20:56:33.197Z,10.20
2022-09-17T20:59:09.595Z,10.20
2022-09-17T21:01:37.947Z,10.20
2022-09-17T21:04:08.285Z,10.20
2022-09-17T21:06:41.239Z,10.20
2022-09-17T21:09:15.914Z,10.20
2022-09-17T21:11:45.206Z,10.20
2022-09-17T21:16:41.391Z,10.20
2022-09-17T21:19:11.376Z,10.20
2022-09-17T21:21:39.334Z,10.10
2022-09-17T21:24:10.268Z,10.10
2022-09-17T21:31:36.950Z,9.90
2022-09-17T21:34:07.312Z,10.00
2022-09-17T21:36:37.370Z,9.90
2022-09-17T21:39:06.285Z,9.90
2022-09-17T21:41:35.749Z,9.90
2022-09-17T21:44:06.411Z,9.90
2022-09-17T21:46:36.179Z,9.90
2022-09-17T21:49:04.848Z,9.90
2022-09-17T21:51:34.174Z,9.80
2022-09-17T21:54:06.985Z,9.80
2022-09-17T21:56:36.831Z,9.80
2022-09-17T21:59:06.902Z,9.80
2022-09-17T22:01:41.340Z,9.70
2022-09-17T22:04:10.556Z,9.70
2022-09-17T22:06:38.830Z,9.70
2022-09-17T22:09:08.109Z,9.70
2022-09-17T22:11:38.865Z,9.70
2022-09-17T22:14:12.447Z,9.60
2022-09-17T22:16:44.626Z,9.70
2022-09-17T22:19:15.119Z,9.60
2022-09-17T22:21:46.638Z,9.60
2022-09-17T22:24:16.308Z,9.60
2022-09-17T22:26:46.056Z,9.60
2022-09-17T22:29:16.896Z,9.60
2022-09-17T22:31:46.963Z,9.50
2022-09-17T22:34:15.408Z,9.60
2022-09-17T22:36:43.377Z,9.60
2022-09-17T22:39:11.323Z,9.70
2022-09-17T22:41:45.668Z,9.60
2022-09-17T22:44:16.808Z,9.70
2022-09-17T22:46:46.648Z,9.60
2022-09-17T22:49:14.697Z,9.60
2022-09-17T22:51:43.094Z,9.60
2022-09-17T22:54:15.056Z,9.60
2022-09-17T22:56:43.258Z,9.60
2022-09-17T22:59:11.188Z,9.60
2022-09-17T23:01:40.340Z,10.00
2022-09-17T23:04:08.146Z,9.60
2022-09-17T23:06:38.782Z,9.60
2022-09-17T23:09:06.792Z,9.60
2022-09-17T23:11:39.495Z,9.60
2022-09-17T23:14:12.210Z,9.60
2022-09-17T23:16:43.138Z,9.60
2022-09-17T23:19:13.268Z,9.60
2022-09-17T23:21:40.864Z,9.50
2022-09-17T23:24:10.094Z,9.60
2022-09-17T23:26:37.904Z,9.60
2022-09-17T23:29:06.006Z,9.60
2022-09-17T23:31:35.159Z,9.60
2022-09-17T23:34:04.284Z,9.60
2022-09-17T23:36:37.133Z,9.60
2022-09-17T23:39:06.606Z,9.60
2022-09-17T23:41:43.525Z,9.60
2022-09-17T23:44:15.411Z,9.50
2022-09-17T23:46:44.522Z,9.60
2022-09-17T23:49:13.246Z,9.50
2022-09-17T23:51:40.914Z,9.50
2022-09-17T23:54:08.683Z,9.50
2022-09-17T23:56:36.265Z,9.30
2022-09-17T23:59:04.649Z,9.40
